createdAt,value
2023-10-29T00:00:51.434Z,21.63
2023-10-29T00:01:52.028Z,21.60
2023-10-29T00:02:52.800Z,21.54
2023-10-29T00:03:51.294Z,21.56
2023-10-29T00:04:51.567Z,21.55
2023-10-29T00:05:52.246Z,21.53
2023-10-29T00:06:50.660Z,21.57
2023-10-29T00:07:51.617Z,21.62
2023-10-29T00:08:52.088Z,21.69
2023-10-29T00:09:52.644Z,21.77
2023-10-29T00:10:50.639Z,21.71
2023-10-29T00:11:52.060Z,21.70
2023-10-29T00:12:50.821Z,21.65
2023-10-29T00:13:50.990Z,21.65
2023-10-29T00:14:52.231Z,21.68
2023-10-29T00:15:51.167Z,21.71
2023-10-29T00:16:50.182Z,21.75
2023-10-29T00:17:51.725Z,21.60
2023-10-29T00:18:51.544Z,21.65
2023-10-29T00:19:50.959Z,21.69
2023-10-29T00:20:50.994Z,21.67
2023-10-29T00:21:50.901Z,21.65
2023-10-29T00:22:50.048Z,21.62
2023-10-29T00:23:50.939Z,21.48
2023-10-29T00:24:52.126Z,21.50
2023-10-29T00:25:51.752Z,21.45
2023-10-29T00:26:51.763Z,21.46
2023-10-29T00:27:51.340Z,21.51
2023-10-29T00:28:51.549Z,21.51
2023-10-29T00:29:51.742Z,21.48
2023-10-29T00:30:51.182Z,21.54
2023-10-29T00:31:51.889Z,21.60
2023-10-29T00:32:50.802Z,21.61
2023-10-29T00:33:51.428Z,21.61
2023-10-29T00:34:50.216Z,21.70
2023-10-29T00:35:48.404Z,21.57
2023-10-29T00:36:49.757Z,21.44
2023-10-29T00:37:49.797Z,21.46
2023-10-29T00:38:50.882Z,21.43
2023-10-29T00:39:50.409Z,21.48
2023-10-29T00:40:50.151Z,21.49
2023-10-29T00:41:51.028Z,21.57
2023-10-29T00:42:50.514Z,21.59
2023-10-29T00:43:50.742Z,21.61
2023-10-29T00:44:51.556Z,21.63
2023-10-29T00:45:53.072Z,21.61
2023-10-29T00:46:51.154Z,21.70
2023-10-29T00:47:51.319Z,21.67
2023-10-29T00:48:51.661Z,21.65
2023-10-29T00:49:50.362Z,21.74
2023-10-29T00:50:51.162Z,21.71
2023-10-29T00:51:50.203Z,21.73
2023-10-29T00:52:50.264Z,21.79
2023-10-29T00:53:51.261Z,21.82
2023-10-29T00:54:51.649Z,21.72
2023-10-29T00:55:52.072Z,21.72
2023-10-29T00:56:51.023Z,21.64
2023-10-29T00:57:51.293Z,21.61
2023-10-29T00:58:50.758Z,21.63
2023-10-29T00:59:51.571Z,21.72
2023-10-29T01:00:52.916Z,21.57
2023-10-29T01:01:52.205Z,21.61
2023-10-29T01:02:51.983Z,21.58
2023-10-29T01:03:51.449Z,21.54
2023-10-29T01:04:52.325Z,21.56
2023-10-29T01:05:52.464Z,21.63
2023-10-29T01:06:52.281Z,21.54
2023-10-29T01:07:50.899Z,21.49
2023-10-29T01:08:51.254Z,21.48
2023-10-29T01:09:49.338Z,21.5
2023-10-29T01:11:56.657Z,21.51
2023-10-29T01:13:16.826Z,21.50
2023-10-29T01:14:03.448Z,21.50
2023-10-29T01:14:51.282Z,21.65
2023-10-29T01:15:53.240Z,21.60
2023-10-29T01:16:53.496Z,21.62
2023-10-29T01:17:51.385Z,21.69
2023-10-29T01:18:51.294Z,21.68
2023-10-29T01:19:50.079Z,21.67
2023-10-29T01:20:50.711Z,21.70
2023-10-29T01:21:50.486Z,21.69
2023-10-29T01:22:49.848Z,21.69
2023-10-29T01:23:49.026Z,21.78
2023-10-29T01:24:49.661Z,21.82
2023-10-29T01:25:49.334Z,21.75
2023-10-29T01:26:50.929Z,21.81
2023-10-29T01:27:51.278Z,21.75
2023-10-29T01:28:50.760Z,21.79
2023-10-29T01:29:51.407Z,21.82
2023-10-29T01:30:50.877Z,21.84
2023-10-29T01:31:51.508Z,21.84
2023-10-29T01:32:51.143Z,21.78
2023-10-29T01:33:50.023Z,21.79
2023-10-29T01:34:51.307Z,21.82
2023-10-29T01:35:50.185Z,21.84
2023-10-29T01:36:49.843Z,21.79
2023-10-29T01:37:50.598Z,21.80
2023-10-29T01:38:50.398Z,21.77
2023-10-29T01:39:51.397Z,21.83
2023-10-29T01:40:51.341Z,21.79
2023-10-29T01:41:51.812Z,21.84
2023-10-29T01:42:49.638Z,21.90
2023-10-29T01:43:49.368Z,21.90
2023-10-29T01:44:51.137Z,21.88
2023-10-29T01:45:52.316Z,21.80
2023-10-29T01:46:52.229Z,21.82
2023-10-29T01:47:52.398Z,21.80
2023-10-29T01:48:51.431Z,21.80
2023-10-29T01:49:49.965Z,21.88
2023-10-29T01:50:51.008Z,21.88
2023-10-29T01:51:51.341Z,21.90
2023-10-29T01:52:51.079Z,21.90
2023-10-29T01:53:52.078Z,21.96
2023-10-29T01:54:51.352Z,21.95
2023-10-29T01:55:51.364Z,21.86
2023-10-29T01:56:50.227Z,21.74
2023-10-29T01:57:51.620Z,21.77
2023-10-29T01:58:51.197Z,21.78
2023-10-29T01:59:50.524Z,21.80
2023-10-29T02:00:52.333Z,21.78
2023-10-29T02:01:52.501Z,21.68
2023-10-29T02:02:51.187Z,21.76
2023-10-29T02:03:50.977Z,21.83
2023-10-29T02:04:50.517Z,21.87
2023-10-29T02:05:52.157Z,21.80
2023-10-29T02:06:51.188Z,21.74
2023-10-29T02:07:50.829Z,21.78
2023-10-29T02:08:50.679Z,21.70
2023-10-29T02:09:51.696Z,21.68
2023-10-29T02:10:51.226Z,21.65
2023-10-29T02:11:51.664Z,21.75
2023-10-29T02:12:52.266Z,21.73
2023-10-29T02:13:51.512Z,21.71
2023-10-29T02:14:50.991Z,21.60
2023-10-29T02:15:51.264Z,21.65
2023-10-29T02:16:51.740Z,21.75
2023-10-29T02:17:50.669Z,21.72
2023-10-29T02:18:50.463Z,21.66
2023-10-29T02:19:50.757Z,21.70
2023-10-29T02:20:51.847Z,21.65
2023-10-29T02:21:51.257Z,21.69
2023-10-29T02:22:51.397Z,21.60
2023-10-29T02:23:51.018Z,21.55
2023-10-29T02:24:49.716Z,21.63
2023-10-29T02:25:50.959Z,21.67
2023-10-29T02:26:50.455Z,21.64
2023-10-29T02:27:49.406Z,21.61
2023-10-29T02:28:50.647Z,21.52
2023-10-29T02:29:51.494Z,21.54
2023-10-29T02:30:51.702Z,21.52
2023-10-29T02:31:49.694Z,21.55
2023-10-29T02:32:50.888Z,21.67
2023-10-29T02:33:50.805Z,21.60
2023-10-29T02:34:50.267Z,21.53
2023-10-29T02:35:51.305Z,21.51
2023-10-29T02:36:51.744Z,21.55
2023-10-29T02:37:51.210Z,21.55
2023-10-29T02:38:51.782Z,21.64
2023-10-29T02:39:51.755Z,21.67
2023-10-29T02:40:51.932Z,21.67
2023-10-29T02:41:50.714Z,21.65
2023-10-29T02:42:51.405Z,21.62
2023-10-29T02:43:51.909Z,21.57
2023-10-29T02:44:52.038Z,21.61
2023-10-29T02:45:51.709Z,21.63
2023-10-29T02:46:51.446Z,21.60
2023-10-29T02:47:51.755Z,21.49
2023-10-29T02:48:51.031Z,21.42
2023-10-29T02:49:51.580Z,21.49
2023-10-29T02:50:51.622Z,21.39
2023-10-29T02:51:51.886Z,21.37
2023-10-29T02:52:51.793Z,21.35
2023-10-29T02:53:52.333Z,21.35
2023-10-29T02:54:52.195Z,21.47
2023-10-29T02:55:51.664Z,21.47
2023-10-29T02:56:49.958Z,21.43
2023-10-29T02:57:51.071Z,21.50
2023-10-29T02:58:51.155Z,21.60
2023-10-29T02:59:51.292Z,21.67
2023-10-29T03:00:51.866Z,21.59
2023-10-29T03:01:51.608Z,21.55
2023-10-29T03:02:51.244Z,21.61
2023-10-29T03:03:50.902Z,21.58
2023-10-29T03:04:51.658Z,21.53
2023-10-29T03:05:57.214Z,21.50
2023-10-29T03:06:54.715Z,21.50
2023-10-29T03:07:51.582Z,21.54
2023-10-29T03:08:51.669Z,21.57
2023-10-29T03:09:50.876Z,21.53
2023-10-29T03:10:50.893Z,21.61
2023-10-29T03:11:49.616Z,21.65
2023-10-29T03:12:51.190Z,21.63
2023-10-29T03:13:51.210Z,21.72
2023-10-29T03:14:52.049Z,21.66
2023-10-29T03:15:52.807Z,21.57
2023-10-29T03:16:53.501Z,21.60
2023-10-29T03:17:52.833Z,21.65
2023-10-29T03:18:50.849Z,21.61
2023-10-29T03:19:51.862Z,21.64
2023-10-29T03:20:51.840Z,21.71
2023-10-29T03:21:51.487Z,21.66
2023-10-29T03:22:51.658Z,21.69
2023-10-29T03:23:49.365Z,21.66
2023-10-29T03:24:50.925Z,21.73
2023-10-29T03:25:52.006Z,21.68
2023-10-29T03:26:51.712Z,21.68
2023-10-29T03:27:49.982Z,21.67
2023-10-29T03:28:49.899Z,21.71
2023-10-29T03:29:50.765Z,21.58
2023-10-29T03:30:49.883Z,21.61
2023-10-29T03:31:51.665Z,21.63
2023-10-29T03:32:51.632Z,21.62
2023-10-29T03:33:50.543Z,21.72
2023-10-29T03:34:51.355Z,21.69
2023-10-29T03:35:51.808Z,21.77
2023-10-29T03:36:51.048Z,21.79
2023-10-29T03:37:51.123Z,21.78
2023-10-29T03:38:50.701Z,21.74
2023-10-29T03:39:50.223Z,21.77
2023-10-29T03:40:51.845Z,21.75
2023-10-29T03:41:51.491Z,21.77
2023-10-29T03:42:51.423Z,21.73
2023-10-29T03:43:52.394Z,21.78
2023-10-29T03:44:51.894Z,21.78
2023-10-29T03:45:52.493Z,21.80
2023-10-29T03:46:52.366Z,21.77
2023-10-29T03:47:50.893Z,21.76
2023-10-29T03:48:51.544Z,21.64
2023-10-29T03:49:51.655Z,21.63
2023-10-29T03:50:51.141Z,21.72
2023-10-29T03:51:50.577Z,21.73
2023-10-29T03:52:51.568Z,21.70
2023-10-29T03:53:51.445Z,21.63
2023-10-29T03:54:52.262Z,21.64
2023-10-29T03:55:52.285Z,21.65
2023-10-29T03:56:50.650Z,21.78
2023-10-29T03:57:51.191Z,21.76
2023-10-29T03:58:51.138Z,21.75
2023-10-29T03:59:51.048Z,21.85
2023-10-29T04:00:51.696Z,21.83
2023-10-29T04:01:51.531Z,21.78
2023-10-29T04:02:51.270Z,21.88
2023-10-29T04:03:52.389Z,21.95
2023-10-29T04:05:05.730Z,21.88
2023-10-29T04:05:50.207Z,21.73
2023-10-29T04:06:49.013Z,21.78
2023-10-29T04:07:49.129Z,21.80
2023-10-29T04:08:50.416Z,21.77
2023-10-29T04:09:51.505Z,21.72
2023-10-29T04:10:52.316Z,21.85
2023-10-29T04:11:51.446Z,21.94
2023-10-29T04:12:49.981Z,21.88
2023-10-29T04:13:50.796Z,21.92
2023-10-29T04:14:50.258Z,21.96
2023-10-29T04:15:50.406Z,21.76
2023-10-29T04:16:50.906Z,21.67
2023-10-29T04:17:50.640Z,21.73
2023-10-29T04:18:49.750Z,21.77
2023-10-29T04:19:49.196Z,21.80
2023-10-29T04:20:51.111Z,21.84
2023-10-29T04:21:51.185Z,21.85
2023-10-29T04:22:50.835Z,21.88
2023-10-29T04:23:49.438Z,21.94
2023-10-29T04:24:50.196Z,21.86
2023-10-29T04:25:50.056Z,21.82
2023-10-29T04:26:51.090Z,21.89
2023-10-29T04:27:50.360Z,21.89
2023-10-29T04:28:51.177Z,21.87
2023-10-29T04:29:51.509Z,21.90
2023-10-29T04:30:50.003Z,21.98
2023-10-29T04:31:49.250Z,22.05
2023-10-29T04:32:51.057Z,22.03
2023-10-29T04:33:50.581Z,22.04
2023-10-29T04:34:51.202Z,22.05
2023-10-29T04:35:51.781Z,22.07
2023-10-29T04:36:52.115Z,22.14
2023-10-29T04:37:52.194Z,22.09
2023-10-29T04:38:51.558Z,22.05
2023-10-29T04:39:52.352Z,22.08
2023-10-29T04:40:52.255Z,22.07
2023-10-29T04:41:51.699Z,22.17
2023-10-29T04:42:49.718Z,22.09
2023-10-29T04:43:49.982Z,22.04
2023-10-29T04:44:50.121Z,22.04
2023-10-29T04:45:52.077Z,22.04
2023-10-29T04:46:52.166Z,21.99
2023-10-29T04:47:52.337Z,22.00
2023-10-29T04:48:51.434Z,21.96
2023-10-29T04:49:51.120Z,21.97
2023-10-29T04:50:51.169Z,22
2023-10-29T04:51:52.064Z,22.04
2023-10-29T04:52:52.231Z,22.03
2023-10-29T04:53:51.544Z,22.04
2023-10-29T04:54:52.485Z,21.96
2023-10-29T04:55:51.601Z,21.95
2023-10-29T04:56:51.339Z,21.98
2023-10-29T04:57:50.168Z,21.97
2023-10-29T04:58:50.779Z,21.93
2023-10-29T04:59:51.143Z,22.02
2023-10-29T05:00:51.847Z,21.99
2023-10-29T05:01:51.616Z,21.97
2023-10-29T05:02:51.821Z,22.01
2023-10-29T05:03:51.637Z,22.05
2023-10-29T05:04:52.070Z,22.12
2023-10-29T05:05:51.659Z,22.12
2023-10-29T05:06:51.575Z,22.19
2023-10-29T05:07:49.259Z,22.17
2023-10-29T05:08:51.235Z,22.20
2023-10-29T05:09:52.020Z,22.14
2023-10-29T05:10:52.395Z,22.14
2023-10-29T05:11:52.324Z,22.08
2023-10-29T05:12:51.717Z,22.15
2023-10-29T05:13:52.038Z,22.08
2023-10-29T05:14:52.138Z,22.09
2023-10-29T05:15:51.646Z,22.13
2023-10-29T05:16:50.098Z,22.09
2023-10-29T05:17:49.455Z,22.07
2023-10-29T05:18:50.405Z,22.09
2023-10-29T05:19:51.088Z,22.10
2023-10-29T05:20:50.850Z,22.18
2023-10-29T05:21:49.815Z,22.13
2023-10-29T05:22:50.952Z,22.20
2023-10-29T05:23:51.577Z,22.26
2023-10-29T05:24:52.047Z,22.19
2023-10-29T05:25:51.424Z,22.20
2023-10-29T05:26:52.387Z,22.20
2023-10-29T05:27:51.909Z,22.13
2023-10-29T05:28:52.009Z,22.04
2023-10-29T05:29:51.285Z,22.06
2023-10-29T05:30:51.620Z,22.17
2023-10-29T05:31:50.807Z,22.18
2023-10-29T05:32:50.540Z,22.06
2023-10-29T05:33:50.625Z,22.09
2023-10-29T05:34:51.572Z,22.20
2023-10-29T05:35:49.971Z,22.06
2023-10-29T05:36:51.090Z,22.01
2023-10-29T05:37:51.189Z,22.05
2023-10-29T05:38:50.009Z,22
2023-10-29T05:39:51.519Z,21.94
2023-10-29T05:40:51.900Z,21.90
2023-10-29T05:41:50.759Z,21.91
2023-10-29T05:42:51.397Z,21.93
2023-10-29T05:43:50.847Z,21.84
2023-10-29T05:44:51.021Z,21.89
2023-10-29T05:45:51.904Z,21.94
2023-10-29T05:46:51.529Z,21.95
2023-10-29T05:47:50.375Z,21.97
2023-10-29T05:48:50.863Z,21.96
2023-10-29T05:49:50.613Z,22.02
2023-10-29T05:50:50.842Z,22.03
2023-10-29T05:51:51.350Z,21.99
2023-10-29T05:52:51.899Z,21.97
2023-10-29T05:53:52.129Z,21.93
2023-10-29T05:54:51.447Z,21.94
2023-10-29T05:55:51.879Z,21.88
2023-10-29T05:56:50.592Z,21.94
2023-10-29T05:57:51.434Z,21.99
2023-10-29T05:58:51.266Z,21.96
2023-10-29T05:59:51.146Z,21.86
2023-10-29T06:00:52.950Z,21.81
2023-10-29T06:01:52.069Z,21.79
2023-10-29T06:02:51.853Z,21.77
2023-10-29T06:03:52.464Z,21.77
2023-10-29T06:04:51.314Z,21.81
2023-10-29T06:05:51.914Z,21.79
2023-10-29T06:06:51.809Z,21.86
2023-10-29T06:07:52.774Z,21.85
2023-10-29T06:08:52.617Z,21.85
2023-10-29T06:09:51.318Z,21.94
2023-10-29T06:10:52.227Z,21.90
2023-10-29T06:11:50.882Z,21.92
2023-10-29T06:12:50.248Z,21.88
2023-10-29T06:13:51.052Z,21.92
2023-10-29T06:14:50.986Z,21.97
2023-10-29T06:15:51.769Z,21.95
2023-10-29T06:16:51.654Z,21.95
2023-10-29T06:17:50.148Z,21.95
2023-10-29T06:18:50.489Z,21.92
2023-10-29T06:19:51.258Z,21.94
2023-10-29T06:20:51.338Z,22.02
2023-10-29T06:21:50.100Z,22.02
2023-10-29T06:22:50.898Z,22.01
2023-10-29T06:23:50.804Z,21.95
2023-10-29T06:24:51.593Z,21.88
2023-10-29T06:25:50.473Z,21.88
2023-10-29T06:26:50.665Z,21.89
2023-10-29T06:27:51.262Z,21.92
2023-10-29T06:28:51.063Z,21.87
2023-10-29T06:29:52.025Z,21.88
2023-10-29T06:30:51.426Z,21.89
2023-10-29T06:31:51.126Z,21.91
2023-10-29T06:32:51.976Z,21.87
2023-10-29T06:33:51.593Z,21.85
2023-10-29T06:34:51.725Z,21.94
2023-10-29T06:35:50.685Z,21.89
2023-10-29T06:36:51.342Z,21.90
2023-10-29T06:37:51.053Z,21.94
2023-10-29T06:38:53.083Z,21.77
2023-10-29T06:39:52.915Z,21.76
2023-10-29T06:40:52.295Z,21.77
2023-10-29T06:41:52.009Z,21.71
2023-10-29T06:42:51.803Z,21.71
2023-10-29T06:43:51.427Z,21.81
2023-10-29T06:44:51.981Z,21.77
2023-10-29T06:45:52.639Z,21.80
2023-10-29T06:46:51.821Z,21.70
2023-10-29T06:47:51.566Z,21.78
2023-10-29T06:48:52.042Z,21.78
2023-10-29T06:49:51.438Z,21.83
2023-10-29T06:50:52.133Z,21.85
2023-10-29T06:51:50.902Z,21.86
2023-10-29T06:52:52.110Z,21.79
2023-10-29T06:53:51.557Z,21.76
2023-10-29T06:54:51.759Z,21.68
2023-10-29T06:55:51.705Z,21.66
2023-10-29T06:56:49.549Z,21.63
2023-10-29T06:57:48.763Z,21.63
2023-10-29T06:58:51.122Z,21.57
2023-10-29T06:59:52.135Z,21.61
2023-10-29T07:00:53.578Z,21.61
2023-10-29T07:01:52.767Z,21.63
2023-10-29T07:02:52.731Z,21.59
2023-10-29T07:03:52.101Z,21.72
2023-10-29T07:04:51.520Z,21.76
2023-10-29T07:05:51.925Z,21.77
2023-10-29T07:06:52.094Z,21.73
2023-10-29T07:07:51.807Z,21.76
2023-10-29T07:08:51.471Z,21.80
2023-10-29T07:09:51.706Z,21.82
2023-10-29T07:10:51.631Z,21.84
2023-10-29T07:11:52.334Z,21.88
2023-10-29T07:12:52.267Z,21.95
2023-10-29T07:13:51.309Z,21.93
2023-10-29T07:14:52.779Z,21.94
2023-10-29T07:15:54.040Z,22
2023-10-29T07:16:53.508Z,21.94
2023-10-29T07:17:53.724Z,21.81
2023-10-29T07:18:53.201Z,21.83
2023-10-29T07:19:54.190Z,21.88
2023-10-29T07:20:53.665Z,21.88
2023-10-29T07:21:53.186Z,21.90
2023-10-29T07:22:52.081Z,21.93
2023-10-29T07:23:52.912Z,21.93
2023-10-29T07:24:52.501Z,21.97
2023-10-29T07:25:52.390Z,22
2023-10-29T07:26:51.682Z,21.97
2023-10-29T07:27:52.719Z,22.02
2023-10-29T07:28:52.202Z,21.98
2023-10-29T07:29:51.736Z,22.05
2023-10-29T07:30:51.658Z,22.12
2023-10-29T07:31:51.262Z,22.19
2023-10-29T07:32:50.572Z,22.25
2023-10-29T07:33:51.361Z,22.24
2023-10-29T07:34:52.929Z,22.15
2023-10-29T07:35:53.262Z,22.12
2023-10-29T07:36:52.527Z,22.15
2023-10-29T07:37:51.719Z,22.12
2023-10-29T07:38:50.323Z,22.18
2023-10-29T07:39:51.002Z,22.19
2023-10-29T07:40:51.987Z,22.23
2023-10-29T07:41:50.908Z,22.23
2023-10-29T07:42:51.666Z,22.22
2023-10-29T07:43:52.206Z,22.18
2023-10-29T07:44:52.024Z,22.14
2023-10-29T07:45:51.289Z,22.11
2023-10-29T07:46:52.251Z,22.09
2023-10-29T07:47:52.290Z,22.02
2023-10-29T07:48:52.095Z,22.05
2023-10-29T07:49:52.401Z,22.11
2023-10-29T07:50:50.752Z,22.15
2023-10-29T07:51:51.481Z,22.20
2023-10-29T07:52:51.756Z,22.35
2023-10-29T07:53:52.064Z,22.46
2023-10-29T07:54:49.885Z,22.40
2023-10-29T07:55:51.532Z,22.40
2023-10-29T07:56:50.729Z,22.47
2023-10-29T07:57:49.964Z,22.5
2023-10-29T07:58:51.554Z,22.46
2023-10-29T07:59:52.490Z,22.54
2023-10-29T08:00:53.146Z,22.67
2023-10-29T08:01:52.466Z,22.71
2023-10-29T08:02:51.193Z,22.73
2023-10-29T08:03:50.954Z,22.82
2023-10-29T08:04:50.618Z,22.82
2023-10-29T08:05:52.035Z,22.94
2023-10-29T08:06:52.707Z,23.03
2023-10-29T08:07:52.385Z,23.06
2023-10-29T08:08:51.997Z,23.08
2023-10-29T08:09:52.182Z,23.10
2023-10-29T08:10:51.446Z,23.16
2023-10-29T08:11:51.200Z,23.19
2023-10-29T08:12:51.263Z,23.18
2023-10-29T08:13:51.650Z,23.24
2023-10-29T08:14:52.137Z,23.25
2023-10-29T08:15:51.855Z,23.29
2023-10-29T08:16:52.548Z,23.46
2023-10-29T08:17:51.813Z,23.49
2023-10-29T08:18:51.797Z,23.51
2023-10-29T08:19:51.753Z,23.53
2023-10-29T08:20:50.748Z,23.48
2023-10-29T08:21:50.882Z,23.54
2023-10-29T08:22:50.084Z,23.54
2023-10-29T08:23:49.004Z,23.58
2023-10-29T08:24:50.107Z,23.55
2023-10-29T08:25:51.085Z,23.53
2023-10-29T08:26:52.020Z,23.51
2023-10-29T08:27:51.380Z,23.55
2023-10-29T08:28:50.865Z,23.54
2023-10-29T08:29:50.220Z,23.51
2023-10-29T08:30:48.834Z,23.5
2023-10-29T08:31:50.906Z,23.38
2023-10-29T08:32:51.004Z,23.43
2023-10-29T08:33:51.475Z,23.41
2023-10-29T08:34:51.703Z,23.48
2023-10-29T08:35:51.460Z,23.40
2023-10-29T08:36:51.171Z,23.48
2023-10-29T08:37:51.721Z,23.44
2023-10-29T08:38:51.138Z,23.47
2023-10-29T08:39:50.327Z,23.42
2023-10-29T08:40:51.842Z,23.42
2023-10-29T08:41:51.184Z,23.42
2023-10-29T08:42:52.040Z,23.38
2023-10-29T08:43:52.013Z,23.43
2023-10-29T08:44:52.074Z,23.42
2023-10-29T08:45:53.141Z,23.46
2023-10-29T08:46:53.064Z,23.40
2023-10-29T08:47:52.293Z,23.34
2023-10-29T08:48:51.797Z,23.34
2023-10-29T08:49:52.567Z,23.37
2023-10-29T08:50:51.283Z,23.33
2023-10-29T08:51:51.877Z,23.35
2023-10-29T08:52:50.506Z,23.41
2023-10-29T08:53:51.295Z,23.32
2023-10-29T08:54:52.271Z,23.38
2023-10-29T08:55:52.449Z,23.28
2023-10-29T08:56:50.782Z,23.29
2023-10-29T08:57:50.792Z,23.20
2023-10-29T08:58:52.047Z,23.22
2023-10-29T08:59:52.112Z,23.13
2023-10-29T09:00:52.038Z,23.14
2023-10-29T09:01:52.276Z,23.20
2023-10-29T09:02:51.629Z,23.15
2023-10-29T09:03:51.365Z,23.12
2023-10-29T09:04:50.724Z,23.12
2023-10-29T09:05:52.062Z,23.12
2023-10-29T09:06:52.464Z,23.07
2023-10-29T09:07:49.840Z,23.12
2023-10-29T09:08:50.113Z,23.17
2023-10-29T09:09:51.096Z,23.09
2023-10-29T09:10:51.042Z,23.05
2023-10-29T09:11:50.961Z,23.19
2023-10-29T09:12:51.420Z,23.20
2023-10-29T09:13:51.346Z,23.18
2023-10-29T09:14:52.036Z,23.17
2023-10-29T09:15:52.744Z,23.12
2023-10-29T09:16:52.085Z,23.14
2023-10-29T09:17:51.955Z,23.15
2023-10-29T09:18:51.469Z,23.23
2023-10-29T09:19:52.144Z,23.23
2023-10-29T09:20:52.808Z,23.31
2023-10-29T09:21:51.709Z,23.40
2023-10-29T09:22:50.458Z,23.40
2023-10-29T09:23:49.139Z,23.40
2023-10-29T09:24:50.021Z,23.38
2023-10-29T09:25:51.470Z,23.43
2023-10-29T09:26:50.055Z,23.46
2023-10-29T09:27:51.190Z,23.37
2023-10-29T09:28:50.936Z,23.38
2023-10-29T09:29:51.957Z,23.44
2023-10-29T09:30:52.072Z,23.45
2023-10-29T09:31:51.616Z,23.49
2023-10-29T09:32:49.528Z,23.49
2023-10-29T09:33:49.307Z,23.48
2023-10-29T09:34:50.991Z,23.48
2023-10-29T09:35:51.496Z,23.45
2023-10-29T09:36:51.546Z,23.52
2023-10-29T09:37:49.813Z,23.44
2023-10-29T09:38:49.996Z,23.44
2023-10-29T09:39:49.753Z,23.45
2023-10-29T09:41:51.088Z,23.46
2023-10-29T09:42:50.978Z,23.43
2023-10-29T09:43:50.363Z,23.37
2023-10-29T09:44:50.876Z,23.31
2023-10-29T09:45:51.671Z,23.15
2023-10-29T09:46:52.358Z,23.23
2023-10-29T09:47:51.676Z,23.15
2023-10-29T09:48:51.144Z,23.21
2023-10-29T09:49:51.524Z,23.34
2023-10-29T09:50:52.607Z,23.33
2023-10-29T09:51:52.064Z,23.41
2023-10-29T09:52:52.677Z,23.43
2023-10-29T09:53:53.035Z,23.52
2023-10-29T09:54:52.683Z,23.54
2023-10-29T09:55:51.418Z,23.55
2023-10-29T09:56:51.867Z,23.61
2023-10-29T09:57:51.492Z,23.62
2023-10-29T09:58:50.384Z,23.64
2023-10-29T09:59:50.448Z,23.73
2023-10-29T10:00:52.275Z,23.85
2023-10-29T10:01:58.434Z,23.82
2023-10-29T10:02:54.896Z,23.80
2023-10-29T10:03:53.767Z,23.82
2023-10-29T10:04:53.123Z,23.72
2023-10-29T10:05:52.343Z,23.79
2023-10-29T10:06:50.518Z,23.77
2023-10-29T10:07:48.400Z,23.76
2023-10-29T10:08:48.450Z,23.73
2023-10-29T10:09:48.222Z,23.65
2023-10-29T10:10:50.796Z,23.62
2023-10-29T10:11:51.995Z,23.57
2023-10-29T10:12:50.349Z,23.57
2023-10-29T10:13:51.581Z,23.57
2023-10-29T10:14:49.794Z,23.54
2023-10-29T10:15:52.024Z,23.60
2023-10-29T10:16:52.330Z,23.55
2023-10-29T10:17:52.158Z,23.60
2023-10-29T10:18:53.215Z,23.61
2023-10-29T10:19:51.074Z,23.62
2023-10-29T10:20:52.299Z,23.72
2023-10-29T10:21:51.290Z,23.71
2023-10-29T10:22:51.604Z,23.79
2023-10-29T10:23:50.580Z,23.79
2023-10-29T10:24:49.896Z,23.82
2023-10-29T10:25:51.352Z,23.83
2023-10-29T10:26:51.319Z,23.92
2023-10-29T10:27:51.218Z,24.03
2023-10-29T10:28:52.275Z,24.01
2023-10-29T10:29:51.035Z,24.03
2023-10-29T10:30:52.322Z,24.02
2023-10-29T10:31:51.564Z,24.09
2023-10-29T10:32:50.454Z,24.17
2023-10-29T10:33:50.616Z,24.19
2023-10-29T10:34:51.631Z,24.25
2023-10-29T10:35:51.440Z,24.28
2023-10-29T10:36:51.999Z,24.25
2023-10-29T10:37:52.264Z,24.28
2023-10-29T10:38:50.746Z,24.33
2023-10-29T10:39:51.539Z,24.29
2023-10-29T10:40:51.727Z,24.29
2023-10-29T10:41:51.145Z,24.26
2023-10-29T10:42:51.432Z,24.15
2023-10-29T10:43:51.674Z,24.12
2023-10-29T10:44:52.341Z,24.19
2023-10-29T10:45:52.472Z,24.15
2023-10-29T10:46:52.166Z,24.15
2023-10-29T10:47:51.894Z,24.06
2023-10-29T10:48:50.942Z,23.99
2023-10-29T10:49:51.233Z,23.95
2023-10-29T10:50:50.968Z,23.98
2023-10-29T10:51:51.873Z,24.00
2023-10-29T10:52:51.939Z,24.04
2023-10-29T10:53:52.636Z,24.05
2023-10-29T10:54:52.254Z,24.00
2023-10-29T10:56:03.242Z,24.01
2023-10-29T10:56:50.053Z,23.96
2023-10-29T10:57:49.684Z,24.04
2023-10-29T10:58:48.738Z,24.03
2023-10-29T10:59:50.387Z,23.91
2023-10-29T11:00:52.484Z,23.87
2023-10-29T11:01:52.524Z,23.85
2023-10-29T11:02:52.726Z,23.77
2023-10-29T11:03:52.872Z,23.72
2023-10-29T11:04:51.374Z,23.73
2023-10-29T11:05:52.582Z,23.77
2023-10-29T11:06:52.179Z,23.81
2023-10-29T11:07:52.105Z,23.88
2023-10-29T11:08:50.279Z,23.97
2023-10-29T11:09:51.045Z,24.03
2023-10-29T11:10:52.220Z,24.08
2023-10-29T11:11:51.764Z,24.12
2023-10-29T11:12:51.949Z,24.10
2023-10-29T11:13:51.793Z,24.16
2023-10-29T11:14:52.206Z,24.22
2023-10-29T11:15:53.083Z,24.17
2023-10-29T11:16:52.230Z,24.09
2023-10-29T11:17:52.757Z,24.06
2023-10-29T11:18:51.591Z,24.02
2023-10-29T11:19:52.111Z,24.03
2023-10-29T11:20:50.657Z,24.11
2023-10-29T11:21:51.590Z,24.11
2023-10-29T11:22:51.735Z,24.15
2023-10-29T11:23:51.861Z,24.08
2023-10-29T11:24:51.169Z,24.06
2023-10-29T11:25:50.792Z,24.02
2023-10-29T11:26:52.216Z,24.07
2023-10-29T11:27:52.707Z,24.05
2023-10-29T11:28:52.198Z,24.04
2023-10-29T11:29:52.336Z,24.06
2023-10-29T11:30:52.381Z,24.13
2023-10-29T11:31:52.333Z,24.18
2023-10-29T11:32:52.012Z,24.18
2023-10-29T11:33:52.432Z,24.19
2023-10-29T11:34:52.482Z,24.17
2023-10-29T11:35:51.940Z,24.20
2023-10-29T11:36:50.189Z,24.23
2023-10-29T11:37:50.719Z,24.32
2023-10-29T11:38:50.387Z,24.32
2023-10-29T11:39:50.060Z,24.41
2023-10-29T11:40:51.191Z,24.58
2023-10-29T11:41:50.085Z,24.71
2023-10-29T11:42:50.466Z,24.77
2023-10-29T11:43:51.443Z,24.73
2023-10-29T11:44:49.841Z,24.75
2023-10-29T11:45:51.313Z,24.82
2023-10-29T11:46:51.312Z,24.89
2023-10-29T11:47:51.994Z,24.86
2023-10-29T11:48:51.147Z,24.89
2023-10-29T11:49:51.229Z,24.96
2023-10-29T11:50:52.401Z,24.95
2023-10-29T11:51:52.122Z,24.94
2023-10-29T11:52:52.390Z,24.82
2023-10-29T11:53:51.796Z,24.77
2023-10-29T11:54:51.486Z,24.77
2023-10-29T11:55:52.423Z,24.77
2023-10-29T11:56:50.941Z,24.70
2023-10-29T11:57:51.427Z,24.65
2023-10-29T11:58:52.416Z,24.68
2023-10-29T11:59:52.522Z,24.72
2023-10-29T12:00:52.847Z,24.71
2023-10-29T12:01:52.693Z,24.69
2023-10-29T12:02:53.498Z,24.63
2023-10-29T12:03:52.672Z,24.63
2023-10-29T12:04:51.972Z,24.63
2023-10-29T12:05:51.399Z,24.55
2023-10-29T12:06:51.897Z,24.60
2023-10-29T12:07:51.909Z,24.61
2023-10-29T12:08:51.338Z,24.57
2023-10-29T12:09:50.890Z,24.55
2023-10-29T12:10:51.893Z,24.56
2023-10-29T12:11:51.446Z,24.56
2023-10-29T12:12:50.848Z,24.5
2023-10-29T12:13:52.121Z,24.48
2023-10-29T12:14:51.539Z,24.40
2023-10-29T12:15:52.641Z,24.37
2023-10-29T12:16:52.419Z,24.45
2023-10-29T12:17:51.108Z,24.47
2023-10-29T12:18:51.878Z,24.47
2023-10-29T12:19:52.164Z,24.48
2023-10-29T12:20:52.040Z,24.54
2023-10-29T12:21:52.093Z,24.56
2023-10-29T12:22:51.941Z,24.57
2023-10-29T12:23:51.708Z,24.56
2023-10-29T12:24:51.490Z,24.57
2023-10-29T12:25:51.075Z,24.59
2023-10-29T12:26:51.502Z,24.58
2023-10-29T12:27:52.360Z,24.65
2023-10-29T12:28:51.276Z,24.67
2023-10-29T12:29:51.512Z,24.70
2023-10-29T12:30:52.670Z,24.72
2023-10-29T12:31:52.450Z,24.70
2023-10-29T12:32:51.897Z,24.62
2023-10-29T12:33:52.214Z,24.64
2023-10-29T12:34:50.917Z,24.69
2023-10-29T12:35:51.772Z,24.66
2023-10-29T12:36:54.266Z,24.55
2023-10-29T12:37:52.898Z,24.62
2023-10-29T12:38:52.058Z,24.59
2023-10-29T12:39:52.328Z,24.52
2023-10-29T12:40:52.521Z,24.48
2023-10-29T12:41:52.623Z,24.44
2023-10-29T12:42:51.939Z,24.45
2023-10-29T12:43:52.400Z,24.36
2023-10-29T12:44:50.791Z,24.38
2023-10-29T12:45:51.222Z,24.29
2023-10-29T12:46:51.893Z,24.22
2023-10-29T12:47:52.651Z,24.25
2023-10-29T12:48:52.341Z,24.16
2023-10-29T12:49:52.884Z,24.14
2023-10-29T12:50:51.850Z,24
2023-10-29T12:51:51.814Z,24.01
2023-10-29T12:52:51.556Z,24.06
2023-10-29T12:53:50.474Z,24.03
2023-10-29T12:54:51.239Z,24.08
2023-10-29T12:55:51.050Z,23.92